Time;durP1;ratioP1;P1;durP2;ratioP2;P2;SDS_P1;SDS_P2;PMS_P1;PMS_P2;Temp;Humidity;BMP_temperature;BMP_pressure;BME280_temperature;BME280_humidity;BME280_pressure;Samples;Min_cycle;Max_cycle;Signal;HPM_P1;HPM_P2
2022/11/18 00:00:54;;;;;;;0.70;0.40;;;8.00;99.90;;;;;;5012394;28;20431;-74
2022/11/18 00:03:20;;;;;;;0.70;0.40;;;8.00;99.90;;;;;;4994597;28;20463;-74
2022/11/18 00:05:56;;;;;;;1.43;0.40;;;8.10;99.90;;;;;;5012535;28;20198;-74
2022/11/18 00:08:23;;;;;;;1.00;0.37;;;8.10;99.90;;;;;;5012036;28;20494;-73
2022/11/18 00:10:48;;;;;;;0.70;0.40;;;8.10;99.90;;;;;;5012128;28;20452;-74
2022/11/18 00:16:01;;;;;;;1.30;0.67;;;8.20;99.90;;;;;;5011850;28;20524;-74
2022/11/18 00:18:26;;;;;;;0.60;0.30;;;8.20;99.90;;;;;;4978171;28;21128;-74
2022/11/18 00:20:52;;;;;;;0.60;0.40;;;8.20;99.90;;;;;;4978391;28;20475;-74
2022/11/18 00:23:18;;;;;;;5.80;0.30;;;8.20;99.90;;;;;;4994604;28;20237;-73
2022/11/18 00:25:43;;;;;;;1.67;0.40;;;8.20;99.90;;;;;;4978072;28;20208;-74
2022/11/18 00:28:09;;;;;;;1.07;0.30;;;8.20;99.90;;;;;;4994930;28;20541;-74
2022/11/18 00:30:34;;;;;;;0.80;0.40;;;8.30;99.90;;;;;;4995256;28;20204;-74
2022/11/18 00:33:00;;;;;;;0.70;0.30;;;8.30;99.90;;;;;;5012611;28;20264;-74
2022/11/18 00:35:25;;;;;;;0.80;0.40;;;8.30;99.90;;;;;;4994462;28;20604;-74
2022/11/18 00:37:51;;;;;;;0.70;0.30;;;8.30;99.90;;;;;;5011763;28;20177;-74
2022/11/18 00:40:17;;;;;;;0.70;0.40;;;8.20;99.90;;;;;;4994283;28;20228;-73
2022/11/18 00:42:52;;;;;;;0.70;0.40;;;8.30;99.90;;;;;;4994381;28;20462;-74
2022/11/18 00:45:19;;;;;;;1.20;0.50;;;8.30;99.90;;;;;;5011640;28;20602;-74
2022/11/18 00:47:45;;;;;;;0.60;0.30;;;8.30;99.90;;;;;;5011846;28;20415;-74
2022/11/18 00:50:11;;;;;;;0.70;0.30;;;8.20;99.90;;;;;;5011912;28;20417;-74
2022/11/18 00:52:37;;;;;;;0.60;0.40;;;8.10;99.90;;;;;;4994152;28;20181;-74
2022/11/18 00:55:02;;;;;;;0.60;0.30;;;8.10;99.90;;;;;;5011637;28;20951;-74
2022/11/18 00:57:28;;;;;;;0.60;0.30;;;8.10;99.90;;;;;;5011480;28;20278;-74
2022/11/18 00:59:54;;;;;;;0.67;0.37;;;8.20;99.90;;;;;;4993722;28;20522;-74
2022/11/18 01:02:20;;;;;;;0.60;0.30;;;8.20;99.90;;;;;;4993750;28;20213;-74
2022/11/18 01:04:45;;;;;;;0.70;0.40;;;8.20;99.90;;;;;;4993611;28;20259;-74
2022/11/18 01:07:11;;;;;;;0.70;0.40;;;8.20;99.90;;;;;;5011259;28;20239;-74
2022/11/18 01:09:36;;;;;;;0.60;0.30;;;8.20;99.90;;;;;;5011106;28;20226;-74
2022/11/18 01:14:47;;;;;;;0.80;0.40;;;8.20;99.90;;;;;;5011274;28;20223;-74
2022/11/18 01:17:13;;;;;;;1.17;0.40;;;8.10;99.90;;;;;;5011077;28;20920;-74
2022/11/18 01:19:38;;;;;;;2.03;0.40;;;8.10;99.90;;;;;;4992824;28;20186;-74
2022/11/18 01:22:04;;;;;;;0.80;0.40;;;8.00;99.90;;;;;;4993004;28;20220;-74
2022/11/18 01:24:31;;;;;;;0.77;0.47;;;8.00;99.90;;;;;;5010706;28;20975;-74
2022/11/18 01:26:57;;;;;;;0.80;0.40;;;8.00;99.90;;;;;;4993212;28;20236;-74
2022/11/18 01:29:22;;;;;;;1.30;0.40;;;7.90;99.90;;;;;;4992889;28;20520;-74
2022/11/18 01:31:48;;;;;;;0.70;0.50;;;7.90;99.90;;;;;;5010873;28;20612;-74
2022/11/18 01:34:14;;;;;;;1.40;0.40;;;7.90;99.90;;;;;;4993051;28;20203;-74
2022/11/18 01:36:39;;;;;;;0.67;0.33;;;7.90;99.90;;;;;;5010610;28;20225;-74
2022/11/18 01:39:05;;;;;;;0.60;0.30;;;7.90;99.90;;;;;;5010204;28;20553;-74
2022/11/18 01:41:31;;;;;;;0.60;0.40;;;7.80;99.90;;;;;;4992377;28;20189;-74
2022/11/18 01:44:04;;;;;;;0.90;0.40;;;7.90;99.90;;;;;;5009509;28;20850;-74
2022/11/18 01:46:32;;;;;;;1.00;0.43;;;7.90;99.90;;;;;;4992085;28;20420;-74
2022/11/18 01:49:09;;;;;;;0.70;0.40;;;7.90;99.90;;;;;;4991956;28;20462;-74
2022/11/18 01:51:54;;;;;;;0.70;0.30;;;7.90;99.90;;;;;;4992107;28;20424;-74
2022/11/18 01:54:26;;;;;;;0.70;0.37;;;7.90;99.90;;;;;;5009678;28;20436;-74
2022/11/18 01:56:55;;;;;;;0.67;0.30;;;8.00;99.90;;;;;;4975956;28;20471;-74
2022/11/18 01:59:25;;;;;;;1.37;0.40;;;8.00;99.90;;;;;;5009733;28;20451;-74
2022/11/18 02:01:50;;;;;;;2.97;0.40;;;7.90;99.90;;;;;;5009550;28;20463;-74
2022/11/18 02:04:16;;;;;;;0.70;0.40;;;8.00;99.90;;;;;;4991911;28;20992;-74
2022/11/18 02:06:44;;;;;;;2.40;0.63;;;8.00;99.90;;;;;;5009922;28;20186;-74
2022/11/18 02:09:11;;;;;;;0.80;0.40;;;8.00;99.90;;;;;;5011086;28;20408;-74
2022/11/18 02:11:54;;;;;;;0.80;0.30;;;8.00;99.90;;;;;;4991674;28;20430;-74
2022/11/18 02:14:33;;;;;;;2.93;0.40;;;8.00;99.90;;;;;;4991480;28;20447;-74
2022/11/18 02:17:36;;;;;;;5.07;0.40;;;8.00;99.90;;;;;;5009473;28;20416;-74
2022/11/18 02:20:07;;;;;;;2.80;0.47;;;8.00;99.90;;;;;;4931683;29;20421;-74
2022/11/18 02:22:36;;;;;;;0.70;0.40;;;8.00;99.90;;;;;;5000084;28;20627;-74
2022/11/18 02:25:16;;;;;;;1.67;0.40;;;8.10;99.90;;;;;;4991518;28;20454;-74
2022/11/18 02:28:00;;;;;;;1.00;0.67;;;8.10;99.90;;;;;;4991321;28;20428;-74
2022/11/18 02:30:29;;;;;;;1.40;0.73;;;8.10;99.90;;;;;;5009635;28;20514;-74
2022/11/18 02:34:00;;;;;;;1.10;0.40;;;8.10;99.90;;;;;;5008277;28;20432;-74
2022/11/18 02:36:39;;;;;;;8.33;2.77;;;8.10;99.90;;;;;;4928675;29;20435;-74
2022/11/18 02:39:12;;;;;;;9.73;3.10;;;8.10;99.90;;;;;;4999702;28;20450;-74
2022/11/18 02:41:41;;;;;;;4.43;1.00;;;8.10;99.90;;;;;;4975513;28;21393;-74
2022/11/18 02:44:14;;;;;;;1.17;0.80;;;8.10;99.90;;;;;;4990905;28;20963;-74
2022/11/18 02:46:43;;;;;;;0.80;0.50;;;8.10;99.90;;;;;;5008617;28;20454;-74
2022/11/18 02:49:15;;;;;;;0.90;0.40;;;8.10;99.90;;;;;;4974987;28;20431;-74
2022/11/18 02:51:43;;;;;;;0.83;0.50;;;8.10;99.90;;;;;;5009246;28;20438;-74
2022/11/18 02:54:12;;;;;;;1.47;0.40;;;8.00;99.90;;;;;;5008990;28;20437;-74
2022/11/18 02:56:38;;;;;;;0.73;0.40;;;7.90;99.90;;;;;;4991156;28;20420;-74
2022/11/18 02:59:04;;;;;;;0.60;0.30;;;7.90;99.90;;;;;;5008380;28;20522;-74
2022/11/18 03:01:32;;;;;;;0.70;0.40;;;8.00;99.90;;;;;;5008810;28;20495;-74
2022/11/18 03:03:58;;;;;;;0.80;0.60;;;8.00;99.90;;;;;;4990658;28;20596;-74
2022/11/18 03:06:32;;;;;;;2.20;0.50;;;8.00;99.90;;;;;;4990831;28;20440;-74
2022/11/18 03:09:04;;;;;;;0.90;0.50;;;8.00;99.90;;;;;;5008400;28;20610;-74
2022/11/18 03:11:36;;;;;;;0.70;0.40;;;8.00;99.90;;;;;;4990556;28;20944;-74
2022/11/18 03:14:26;;;;;;;1.00;0.47;;;8.00;99.90;;;;;;4990771;28;20911;-74
2022/11/18 03:17:02;;;;;;;1.00;0.50;;;7.90;99.90;;;;;;5008371;28;20939;-74
2022/11/18 03:20:02;;;;;;;1.90;0.60;;;7.80;99.90;;;;;;4990831;28;20431;-74
2022/11/18 03:22:49;;;;;;;0.90;0.40;;;7.80;99.90;;;;;;5008646;28;20494;-74
2022/11/18 03:25:36;;;;;;;0.90;0.60;;;7.80;99.90;;;;;;5008669;28;20459;-74
2022/11/18 03:28:08;;;;;;;3.40;1.00;;;7.90;99.90;;;;;;5008664;28;20413;-74
2022/11/18 03:30:37;;;;;;;136.57;38.27;;;8.10;99.90;;;;;;4990666;28;20420;-74
2022/11/18 03:33:09;;;;;;;424.33;142.60;;;8.00;99.90;;;;;;5008517;28;20411;-74
2022/11/18 03:35:38;;;;;;;136.70;43.60;;;8.10;99.90;;;;;;5008850;28;20440;-74
2022/11/18 03:38:10;;;;;;;50.67;18.87;;;8.00;99.90;;;;;;5008694;28;20435;-74
2022/11/18 03:40:39;;;;;;;3.10;1.80;;;8.00;99.90;;;;;;5008499;28;20455;-74
2022/11/18 03:43:25;;;;;;;1.50;1.00;;;8.10;99.90;;;;;;5008713;28;20526;-73
2022/11/18 03:46:07;;;;;;;2.03;0.80;;;8.10;99.90;;;;;;5011872;28;20864;-74
2022/11/18 03:48:40;;;;;;;0.90;0.40;;;8.10;99.90;;;;;;5012248;28;20501;-74
2022/11/18 03:51:08;;;;;;;0.90;0.70;;;8.10;99.90;;;;;;5011940;28;20409;-74
2022/11/18 03:53:38;;;;;;;0.80;0.40;;;8.10;99.90;;;;;;5011680;28;21260;-74
2022/11/18 03:56:17;;;;;;;3.00;2.27;;;8.20;99.90;;;;;;5011443;28;20807;-74
2022/11/18 03:58:59;;;;;;;4.50;2.60;;;8.10;99.90;;;;;;5011879;28;20412;-74
2022/11/18 04:01:40;;;;;;;4.03;2.93;;;8.10;99.90;;;;;;5011697;28;20415;-74
2022/11/18 04:04:06;;;;;;;1.40;0.80;;;8.10;99.90;;;;;;5011425;28;20409;-74
2022/11/18 04:06:46;;;;;;;1.00;0.90;;;8.10;99.90;;;;;;5011426;28;20451;-74
2022/11/18 04:09:17;;;;;;;4.27;3.87;;;8.10;99.90;;;;;;4993971;28;20408;-74
2022/11/18 04:12:03;;;;;;;10.70;8.40;;;8.10;99.90;;;;;;5011408;28;20404;-74
2022/11/18 04:14:31;;;;;;;12.03;8.97;;;8.00;99.90;;;;;;5011281;28;20452;-73
2022/11/18 04:16:57;;;;;;;4.73;3.97;;;8.00;99.90;;;;;;5011330;28;20408;-73
2022/11/18 04:19:22;;;;;;;7.07;6.37;;;8.00;99.90;;;;;;4993698;28;20465;-74
2022/11/18 04:21:49;;;;;;;0.90;0.80;;;8.00;99.90;;;;;;5011217;28;20655;-74
2022/11/18 04:24:15;;;;;;;5.30;3.63;;;8.00;99.90;;;;;;4993947;28;20256;-74
2022/11/18 04:26:41;;;;;;;0.70;0.40;;;8.00;99.90;;;;;;4994254;28;20944;-74
2022/11/18 04:29:06;;;;;;;0.80;0.50;;;7.90;99.90;;;;;;5011847;28;20485;-74
2022/11/18 04:31:32;;;;;;;14.20;10.83;;;7.90;99.90;;;;;;5011802;28;20544;-74
2022/11/18 04:33:58;;;;;;;1.00;0.90;;;7.90;99.90;;;;;;4994344;28;20219;-73
2022/11/18 04:36:23;;;;;;;2.03;0.40;;;8.00;99.90;;;;;;5012027;28;20319;-74
2022/11/18 04:38:49;;;;;;;1.00;0.50;;;7.90;99.90;;;;;;4994574;28;20191;-74
2022/11/18 04:41:14;;;;;;;0.70;0.40;;;7.90;99.90;;;;;;4994776;28;20692;-74
2022/11/18 04:43:40;;;;;;;17.30;8.30;;;7.90;99.90;;;;;;4994664;28;20205;-74
2022/11/18 04:46:06;;;;;;;256.73;126.57;;;7.90;99.90;;;;;;4994047;28;20218;-74
2022/11/18 04:48:32;;;;;;;76.43;40.40;;;7.90;99.90;;;;;;4993935;28;20521;-74
2022/11/18 04:51:05;;;;;;;35.33;23.27;;;7.90;99.90;;;;;;4993708;28;20194;-74
2022/11/18 04:53:30;;;;;;;15.03;12.60;;;7.90;99.90;;;;;;4993798;28;20439;-73
2022/11/18 04:56:02;;;;;;;8.07;6.00;;;7.90;99.90;;;;;;5010188;28;20442;-73
2022/11/18 04:58:28;;;;;;;3.20;2.90;;;7.90;99.90;;;;;;5011455;28;20543;-74
2022/11/18 05:00:53;;;;;;;1.17;1.00;;;7.80;99.90;;;;;;5010914;28;20928;-74
2022/11/18 05:03:19;;;;;;;0.90;0.80;;;7.80;99.90;;;;;;5010918;28;20228;-73
2022/11/18 05:05:45;;;;;;;1.00;0.90;;;7.80;99.90;;;;;;5011263;28;20256;-74
2022/11/18 05:08:10;;;;;;;1.27;1.13;;;7.80;99.90;;;;;;4993034;28;20181;-74
2022/11/18 05:10:37;;;;;;;1.20;0.70;;;7.80;99.90;;;;;;5010623;28;20193;-74
2022/11/18 05:13:03;;;;;;;0.93;0.83;;;7.80;99.90;;;;;;4992962;28;20193;-74
2022/11/18 05:15:28;;;;;;;1.10;0.77;;;7.60;99.90;;;;;;5010419;28;20437;-74
2022/11/18 05:17:54;;;;;;;0.90;0.70;;;7.50;99.90;;;;;;4992765;28;20190;-74
2022/11/18 05:20:19;;;;;;;1.43;0.60;;;7.40;99.90;;;;;;5010537;28;20193;-75
2022/11/18 05:22:45;;;;;;;0.80;0.57;;;7.40;99.90;;;;;;4992805;28;20217;-74
2022/11/18 05:25:10;;;;;;;0.80;0.60;;;7.30;99.90;;;;;;4991439;28;20209;-74
2022/11/18 05:27:36;;;;;;;0.80;0.60;;;7.40;99.90;;;;;;4974194;28;20193;-74
2022/11/18 05:30:02;;;;;;;0.80;0.50;;;7.30;99.90;;;;;;5008415;28;20233;-74
2022/11/18 05:32:27;;;;;;;1.07;0.50;;;7.20;99.90;;;;;;5008337;28;20247;-74
2022/11/18 05:34:53;;;;;;;1.80;0.50;;;7.30;99.90;;;;;;4990889;28;20447;-74
2022/11/18 05:37:19;;;;;;;0.70;0.60;;;7.20;99.90;;;;;;4974561;28;20308;-74
2022/11/18 05:39:44;;;;;;;0.70;0.40;;;7.20;99.90;;;;;;4990717;28;20194;-74
2022/11/18 05:44:54;;;;;;;1.37;0.40;;;7.20;99.90;;;;;;4993777;28;20644;-73
2022/11/18 05:47:20;;;;;;;0.70;0.40;;;7.20;99.90;;;;;;4974518;28;20433;-73
2022/11/18 05:49:45;;;;;;;0.70;0.40;;;7.20;99.90;;;;;;4990960;28;20193;-73
2022/11/18 05:52:11;;;;;;;0.70;0.30;;;7.20;99.90;;;;;;4990293;28;20222;-73
2022/11/18 05:54:48;;;;;;;2.20;0.40;;;7.20;99.90;;;;;;4990178;28;20214;-73
2022/11/18 05:57:14;;;;;;;3.10;0.83;;;7.20;99.90;;;;;;4990808;28;20189;-73
2022/11/18 05:59:40;;;;;;;0.80;0.50;;;7.30;99.90;;;;;;4990524;28;20433;-72
2022/11/18 06:02:13;;;;;;;0.80;0.40;;;7.30;99.90;;;;;;4990354;28;20206;-73
2022/11/18 06:04:55;;;;;;;1.00;0.70;;;7.30;99.90;;;;;;5007719;28;20558;-72
2022/11/18 06:07:29;;;;;;;0.70;0.40;;;7.30;99.90;;;;;;4989625;28;20473;-73
2022/11/18 06:09:58;;;;;;;0.63;0.40;;;7.20;99.90;;;;;;5007575;28;20428;-73
2022/11/18 06:12:28;;;;;;;0.60;0.40;;;7.30;99.90;;;;;;4989541;28;20447;-73
2022/11/18 06:14:58;;;;;;;0.70;0.50;;;7.20;99.90;;;;;;4989794;28;20443;-73
2022/11/18 06:17:29;;;;;;;0.90;0.60;;;7.20;99.90;;;;;;4990209;28;21015;-73
2022/11/18 06:19:55;;;;;;;0.87;0.60;;;7.30;99.90;;;;;;5007605;28;20427;-73
2022/11/18 06:22:21;;;;;;;1.20;0.40;;;7.20;99.90;;;;;;5007474;28;20464;-73
2022/11/18 06:24:46;;;;;;;4.53;0.80;;;7.20;99.90;;;;;;4989969;28;20992;-73
2022/11/18 06:27:13;;;;;;;0.70;0.47;;;7.20;99.90;;;;;;4989789;28;20577;-73
2022/11/18 06:29:39;;;;;;;2.37;0.83;;;7.30;99.90;;;;;;4989844;28;20746;-73
2022/11/18 06:32:04;;;;;;;3.93;1.60;;;7.30;99.90;;;;;;5007608;28;20513;-74
2022/11/18 06:34:30;;;;;;;1.93;1.10;;;7.20;99.90;;;;;;4973142;28;20221;-74
2022/11/18 06:36:56;;;;;;;0.80;0.70;;;7.20;99.90;;;;;;4973215;28;20192;-74
2022/11/18 06:39:21;;;;;;;11.13;0.70;;;7.20;99.90;;;;;;4973116;28;20266;-73
2022/11/18 06:41:47;;;;;;;1.23;0.90;;;7.30;99.90;;;;;;5007288;28;20665;-73
2022/11/18 06:44:13;;;;;;;1.13;0.87;;;7.20;99.90;;;;;;4973380;28;20267;-74
2022/11/18 06:46:54;;;;;;;1.00;0.70;;;7.30;99.90;;;;;;4989830;28;20196;-74
2022/11/18 06:49:20;;;;;;;1.50;1.00;;;7.10;99.90;;;;;;4990003;28;20439;-74
2022/11/18 06:51:45;;;;;;;0.80;0.80;;;7.10;99.90;;;;;;5007741;28;20432;-74
2022/11/18 06:54:11;;;;;;;1.87;0.70;;;7.20;99.90;;;;;;4989747;28;20460;-74
2022/11/18 06:56:37;;;;;;;1.20;0.50;;;7.20;99.90;;;;;;4989741;28;20186;-72
2022/11/18 06:59:03;;;;;;;6.67;0.60;;;7.20;99.90;;;;;;4989613;28;20424;-72
2022/11/18 07:01:33;;;;;;;1.10;0.57;;;7.10;99.90;;;;;;5007348;28;20244;-72
2022/11/18 07:03:59;;;;;;;0.80;0.60;;;7.10;99.90;;;;;;4973249;28;20554;-71
2022/11/18 07:06:27;;;;;;;0.80;0.50;;;7.10;99.90;;;;;;5007125;28;20421;-71
2022/11/18 07:08:53;;;;;;;1.17;0.70;;;7.10;99.90;;;;;;5007018;28;20435;-71
2022/11/18 07:11:21;;;;;;;0.70;0.50;;;7.10;99.90;;;;;;4988783;28;20428;-71
2022/11/18 07:13:47;;;;;;;0.70;0.50;;;7.20;99.90;;;;;;5006834;28;20839;-72
2022/11/18 07:16:18;;;;;;;1.00;0.70;;;7.20;99.90;;;;;;5006704;28;20451;-71
2022/11/18 07:18:45;;;;;;;0.60;0.40;;;7.30;99.90;;;;;;4990391;28;20195;-71
2022/11/18 07:21:14;;;;;;;0.70;0.50;;;7.30;99.90;;;;;;5010927;28;20429;-72
2022/11/18 07:23:40;;;;;;;1.13;0.43;;;7.20;99.90;;;;;;5010552;28;20498;-72
2022/11/18 07:26:06;;;;;;;2.17;0.47;;;7.20;99.90;;;;;;5010483;28;20438;-72
2022/11/18 07:28:33;;;;;;;0.60;0.40;;;7.20;99.90;;;;;;5010457;28;20423;-73
2022/11/18 07:31:09;;;;;;;0.60;0.30;;;7.20;99.90;;;;;;5010575;28;20416;-73
2022/11/18 07:33:35;;;;;;;0.70;0.37;;;7.20;99.90;;;;;;5010382;28;20913;-73
2022/11/18 07:36:03;;;;;;;0.80;0.53;;;7.20;99.90;;;;;;4992297;28;20456;-72
2022/11/18 07:38:28;;;;;;;3.60;0.60;;;7.30;99.90;;;;;;5010311;28;20460;-72
2022/11/18 07:40:55;;;;;;;1.27;0.40;;;7.30;99.90;;;;;;4992620;28;20843;-73
2022/11/18 07:43:20;;;;;;;1.00;0.40;;;7.30;99.90;;;;;;4992333;28;20221;-73
2022/11/18 07:45:46;;;;;;;0.80;0.57;;;7.30;99.90;;;;;;4992412;28;20470;-73
2022/11/18 07:48:12;;;;;;;0.60;0.30;;;7.30;99.90;;;;;;4992851;28;20861;-73
2022/11/18 07:50:37;;;;;;;0.70;0.40;;;7.40;99.90;;;;;;4976561;28;20722;-73
2022/11/18 07:53:03;;;;;;;3.10;0.50;;;7.40;99.90;;;;;;4991943;28;20190;-73
2022/11/18 07:55:28;;;;;;;1.10;0.40;;;7.30;99.90;;;;;;5010197;28;20213;-73
2022/11/18 07:57:55;;;;;;;0.60;0.40;;;7.50;99.90;;;;;;4992221;28;20650;-73
2022/11/18 08:00:21;;;;;;;0.70;0.40;;;7.40;99.90;;;;;;4992118;28;20198;-73
2022/11/18 08:02:50;;;;;;;1.03;0.40;;;7.50;99.90;;;;;;4975622;28;20477;-73
2022/11/18 08:05:15;;;;;;;0.90;0.60;;;7.50;99.90;;;;;;5009580;28;20202;-73
2022/11/18 08:07:41;;;;;;;2.40;0.60;;;7.60;99.90;;;;;;5009690;28;20527;-72
2022/11/18 08:10:07;;;;;;;1.43;0.50;;;7.50;99.90;;;;;;4991729;28;20189;-73
2022/11/18 08:12:32;;;;;;;0.90;0.53;;;7.60;99.90;;;;;;5009834;28;20552;-73
2022/11/18 08:14:58;;;;;;;0.80;0.57;;;7.60;99.90;;;;;;5009752;28;20460;-73
2022/11/18 08:17:24;;;;;;;1.20;0.60;;;7.50;99.90;;;;;;5000873;23;20235;-73
2022/11/18 08:19:49;;;;;;;2.37;0.70;;;7.60;99.90;;;;;;5010125;28;20197;-75
2022/11/18 08:22:17;;;;;;;0.97;0.70;;;7.60;99.90;;;;;;5008964;28;20653;-76
2022/11/18 08:24:44;;;;;;;0.70;0.40;;;7.60;99.90;;;;;;5010609;28;20232;-74
2022/11/18 08:27:09;;;;;;;0.70;0.50;;;7.60;99.90;;;;;;5011142;28;20470;-73
2022/11/18 08:29:35;;;;;;;1.13;0.50;;;7.70;99.90;;;;;;5009995;28;21310;-76
2022/11/18 08:32:01;;;;;;;0.90;0.70;;;7.60;99.90;;;;;;5008928;28;20189;-74
2022/11/18 08:34:26;;;;;;;1.13;0.50;;;7.70;99.90;;;;;;5008663;28;20235;-74
2022/11/18 08:36:52;;;;;;;1.07;0.50;;;7.70;99.90;;;;;;5008492;28;20428;-75
2022/11/18 08:39:18;;;;;;;1.00;0.50;;;7.70;99.90;;;;;;5010186;28;20291;-74
2022/11/18 08:41:45;;;;;;;0.67;0.40;;;7.70;99.90;;;;;;5009019;28;20659;-76
2022/11/18 08:44:13;;;;;;;8.23;2.63;;;7.70;99.90;;;;;;5010357;28;20182;-74
2022/11/18 08:46:40;;;;;;;1.20;0.80;;;7.70;99.90;;;;;;5010476;28;20417;-75
2022/11/18 08:49:06;;;;;;;1.33;0.43;;;7.70;99.90;;;;;;5010257;28;21158;-74
2022/11/18 08:51:31;;;;;;;0.80;0.60;;;7.70;99.90;;;;;;5010172;28;20418;-75
2022/11/18 08:53:57;;;;;;;0.83;0.60;;;7.70;99.90;;;;;;5010116;28;20190;-75
2022/11/18 08:56:23;;;;;;;2.03;0.60;;;7.70;99.90;;;;;;5008404;28;20186;-76
2022/11/18 08:58:50;;;;;;;0.80;0.53;;;7.70;99.90;;;;;;5010260;28;20240;-75
2022/11/18 09:01:16;;;;;;;0.70;0.40;;;7.70;99.90;;;;;;5010284;28;20425;-77
2022/11/18 09:03:42;;;;;;;1.83;0.80;;;7.60;99.90;;;;;;5009592;28;20662;-76
2022/11/18 09:06:17;;;;;;;0.90;0.50;;;7.60;99.90;;;;;;5009902;28;21227;-75
2022/11/18 09:08:43;;;;;;;0.70;0.50;;;7.60;99.90;;;;;;5009436;28;20204;-75
2022/11/18 09:11:17;;;;;;;1.53;0.80;;;7.60;99.90;;;;;;5007935;28;20436;-76
2022/11/18 09:13:43;;;;;;;1.87;0.50;;;7.70;99.90;;;;;;5009365;28;20463;-75
2022/11/18 09:16:09;;;;;;;0.80;0.70;;;7.70;99.90;;;;;;5007839;28;20468;-75
2022/11/18 09:18:34;;;;;;;1.77;1.67;;;7.70;99.90;;;;;;5007732;28;20688;-75
2022/11/18 09:21:04;;;;;;;1.30;0.83;;;7.70;99.90;;;;;;5007710;28;20491;-75
2022/11/18 09:23:34;;;;;;;5.97;2.40;;;7.70;99.90;;;;;;5009081;28;20268;-75
2022/11/18 09:26:08;;;;;;;2.13;1.33;;;7.80;99.90;;;;;;5008988;28;20430;-75
2022/11/18 09:28:35;;;;;;;1.80;1.70;;;7.80;99.90;;;;;;5009065;28;20432;-75
2022/11/18 09:31:09;;;;;;;1.47;1.00;;;7.80;99.90;;;;;;5009156;28;20449;-75
2022/11/18 09:33:36;;;;;;;1.57;0.83;;;7.80;99.90;;;;;;5009025;28;20958;-74
2022/11/18 09:36:03;;;;;;;2.83;0.90;;;7.80;99.90;;;;;;5007830;28;20426;-75
2022/11/18 09:38:29;;;;;;;1.30;1.13;;;7.90;99.90;;;;;;5009407;28;20422;-75
2022/11/18 09:41:28;;;;;;;0.90;0.80;;;7.90;99.90;;;;;;5009201;28;20447;-76
2022/11/18 09:44:19;;;;;;;12.43;3.43;;;8.00;99.90;;;;;;5009388;28;20461;-76
2022/11/18 09:47:27;;;;;;;1.83;0.80;;;8.00;99.90;;;;;;4988252;28;20421;-75
2022/11/18 09:49:59;;;;;;;2.03;1.20;;;8.00;99.90;;;;;;5009099;28;20455;-75
2022/11/18 09:52:28;;;;;;;6.93;2.97;;;8.10;99.90;;;;;;5009378;28;20432;-74
2022/11/18 09:54:54;;;;;;;2.03;0.80;;;8.20;99.90;;;;;;5009156;28;20445;-76
2022/11/18 09:57:30;;;;;;;5.20;2.10;;;8.20;99.90;;;;;;5009098;28;20918;-76
2022/11/18 09:59:57;;;;;;;3.43;0.70;;;8.20;99.90;;;;;;5008723;28;20451;-75
2022/11/18 10:02:44;;;;;;;2.30;1.50;;;8.30;99.90;;;;;;5008676;28;20555;-75
2022/11/18 10:05:25;;;;;;;1.73;1.60;;;8.40;99.90;;;;;;5008545;28;20411;-75
2022/11/18 10:08:04;;;;;;;0.70;0.60;;;8.50;99.90;;;;;;5008422;28;20417;-75
2022/11/18 10:10:39;;;;;;;0.80;0.70;;;8.50;99.90;;;;;;5007016;28;20497;-75
2022/11/18 10:13:40;;;;;;;2.93;0.73;;;8.60;99.90;;;;;;5008589;28;20469;-75
2022/11/18 10:16:08;;;;;;;1.10;1.00;;;8.70;99.90;;;;;;5009154;28;20424;-75
2022/11/18 10:18:57;;;;;;;1.50;1.40;;;8.70;99.90;;;;;;5009548;28;20467;-75
2022/11/18 10:21:50;;;;;;;1.00;0.80;;;8.80;99.90;;;;;;4990903;28;20533;-75
2022/11/18 10:24:22;;;;;;;1.10;0.80;;;8.90;99.90;;;;;;5010671;28;20781;-75
2022/11/18 10:26:55;;;;;;;0.93;0.77;;;9.00;99.90;;;;;;5009383;28;20554;-75
2022/11/18 10:29:21;;;;;;;2.10;0.60;;;9.00;99.90;;;;;;5007923;28;20434;-75
2022/11/18 10:32:05;;;;;;;1.10;0.50;;;9.10;99.90;;;;;;5007816;28;20979;-75
2022/11/18 10:34:33;;;;;;;1.20;0.60;;;9.00;99.90;;;;;;5007714;28;20496;-75
2022/11/18 10:37:04;;;;;;;1.70;0.60;;;8.90;99.90;;;;;;5005953;28;20995;-75
2022/11/18 10:39:30;;;;;;;0.87;0.50;;;8.90;99.90;;;;;;5006126;28;20455;-75
2022/11/18 10:42:04;;;;;;;0.97;0.70;;;8.90;99.90;;;;;;5007551;28;20425;-75
2022/11/18 10:44:40;;;;;;;0.87;0.60;;;8.90;99.90;;;;;;5007834;28;20424;-75
2022/11/18 10:47:29;;;;;;;2.83;2.57;;;8.90;99.90;;;;;;5006264;28;20479;-76
2022/11/18 10:50:00;;;;;;;5.20;1.40;;;9.00;99.90;;;;;;5007588;28;20531;-75
2022/11/18 10:52:28;;;;;;;0.80;0.80;;;9.00;99.90;;;;;;5007861;28;20398;-75
2022/11/18 10:55:20;;;;;;;1.10;0.60;;;9.00;99.90;;;;;;5011276;28;20421;-77
2022/11/18 10:57:47;;;;;;;0.77;0.63;;;9.10;99.90;;;;;;5010561;28;20436;-77
2022/11/18 11:00:34;;;;;;;1.20;0.70;;;9.10;99.90;;;;;;5012054;28;20436;-76
2022/11/18 11:03:14;;;;;;;0.93;0.70;;;9.10;99.90;;;;;;5010259;28;20502;-75
2022/11/18 11:05:39;;;;;;;0.80;0.60;;;9.20;99.90;;;;;;5011678;28;20409;-75
2022/11/18 11:08:18;;;;;;;3.93;2.50;;;9.20;99.90;;;;;;5010008;28;20416;-76
2022/11/18 11:10:58;;;;;;;1.00;0.80;;;9.20;99.90;;;;;;5011848;28;20209;-76
2022/11/18 11:13:26;;;;;;;5.33;2.70;;;9.20;99.90;;;;;;5011396;28;20504;-76
2022/11/18 11:15:56;;;;;;;1.10;0.60;;;9.20;99.90;;;;;;5012305;28;20420;-75
2022/11/18 11:18:41;;;;;;;1.00;0.83;;;9.10;99.90;;;;;;5013487;28;20447;-74
2022/11/18 11:21:27;;;;;;;0.80;0.50;;;9.10;99.90;;;;;;5012689;28;20972;-74
2022/11/18 11:23:53;;;;;;;16.53;6.13;;;9.10;99.90;;;;;;5012052;28;20518;-74
2022/11/18 11:26:28;;;;;;;10.07;3.60;;;9.00;99.90;;;;;;5011461;28;20467;-74
2022/11/18 11:29:08;;;;;;;1.00;0.70;;;9.00;99.90;;;;;;5013026;28;20184;-75
2022/11/18 11:32:04;;;;;;;3.87;2.50;;;9.00;99.90;;;;;;5013014;28;20421;-75
2022/11/18 11:34:57;;;;;;;1.97;1.00;;;9.00;99.90;;;;;;5012759;28;20429;-75
2022/11/18 11:37:45;;;;;;;74.87;25.13;;;8.90;99.90;;;;;;5012734;28;20862;-75
2022/11/18 11:40:28;;;;;;;8.37;2.97;;;8.80;99.90;;;;;;5012472;28;20467;-74
2022/11/18 11:43:12;;;;;;;4.90;3.30;;;8.80;99.90;;;;;;5010517;28;20471;-75
2022/11/18 11:45:52;;;;;;;485.53;173.23;;;8.80;99.90;;;;;;5011762;28;20483;-76
2022/11/18 11:48:36;;;;;;;94.10;32.87;;;8.80;99.90;;;;;;5011427;28;20398;-75
2022/11/18 11:51:14;;;;;;;128.40;46.97;;;8.70;99.90;;;;;;5011634;28;20544;-74
2022/11/18 11:54:01;;;;;;;440.37;122.90;;;8.70;99.90;;;;;;5009916;28;20948;-75
2022/11/18 11:56:36;;;;;;;488.17;133.37;;;8.60;99.90;;;;;;5011291;28;20413;-75
2022/11/18 11:59:07;;;;;;;74.03;24.33;;;8.60;99.90;;;;;;5009809;28;20453;-74
2022/11/18 12:02:10;;;;;;;379.07;98.87;;;8.50;99.90;;;;;;5010266;28;20447;-75
2022/11/18 12:05:01;;;;;;;274.47;66.13;;;8.50;99.90;;;;;;5009772;28;20474;-76
2022/11/18 12:07:32;;;;;;;333.57;89.40;;;8.50;99.90;;;;;;5011030;28;20404;-75
2022/11/18 12:10:07;;;;;;;353.20;100.20;;;8.50;99.90;;;;;;5011416;28;20465;-75
2022/11/18 12:12:56;;;;;;;349.27;102.87;;;8.50;99.90;;;;;;5011789;28;20465;-75
2022/11/18 12:15:39;;;;;;;509.93;173.60;;;8.50;99.90;;;;;;5006618;28;20930;-75
2022/11/18 12:18:29;;;;;;;390.73;114.90;;;8.60;99.90;;;;;;5009503;28;21270;-75
2022/11/18 12:20:55;;;;;;;305.83;96.67;;;8.60;99.90;;;;;;5011378;28;20439;-74
2022/11/18 12:23:22;;;;;;;594.33;214.43;;;8.70;99.90;;;;;;5010590;28;20513;-74
2022/11/18 12:25:58;;;;;;;469.13;147.97;;;8.70;99.90;;;;;;5010217;28;20420;-73
2022/11/18 12:28:42;;;;;;;102.23;44.60;;;8.80;99.90;;;;;;5010428;28;20410;-74
2022/11/18 12:31:17;;;;;;;7.70;5.07;;;8.90;99.90;;;;;;5010352;28;20416;-73
2022/11/18 12:33:55;;;;;;;392.73;151.63;;;9.00;99.90;;;;;;5010099;28;20426;-75
2022/11/18 12:36:26;;;;;;;184.30;58.23;;;9.10;99.90;;;;;;5010175;28;20528;-74
2022/11/18 12:38:52;;;;;;;247.27;91.60;;;9.10;99.90;;;;;;5010042;28;20420;-75
2022/11/18 12:44:27;;;;;;;10.20;5.00;;;9.20;99.90;;;;;;5010037;28;20531;-75
2022/11/18 12:47:04;;;;;;;18.60;9.10;;;9.20;99.90;;;;;;4992346;28;20447;-75
2022/11/18 12:49:30;;;;;;;73.33;32.27;;;9.20;99.90;;;;;;5009779;28;20529;-75
2022/11/18 12:51:56;;;;;;;58.20;28.83;;;9.30;99.90;;;;;;5009809;28;20448;-75
2022/11/18 12:54:26;;;;;;;41.17;23.60;;;9.30;99.90;;;;;;5009763;28;20547;-75
2022/11/18 12:56:54;;;;;;;46.90;21.23;;;9.40;99.90;;;;;;5010109;28;20414;-74
2022/11/18 12:59:31;;;;;;;31.47;11.67;;;9.20;99.90;;;;;;5008358;28;20478;-75
2022/11/18 13:02:21;;;;;;;7.50;4.97;;;9.20;99.90;;;;;;5008422;28;20423;-76
2022/11/18 13:05:07;;;;;;;1.10;1.00;;;9.20;99.90;;;;;;5008466;28;20476;-75
2022/11/18 13:10:26;;;;;;;8.60;2.87;;;9.00;99.90;;;;;;5010172;28;20438;-74
2022/11/18 13:12:53;;;;;;;1.97;1.53;;;8.80;99.90;;;;;;5009832;28;20579;-75
2022/11/18 13:18:16;;;;;;;1.77;1.27;;;8.70;99.90;;;;;;5009524;28;20446;-74
2022/11/18 13:20:42;;;;;;;1.07;0.90;;;8.70;99.90;;;;;;5009783;28;20442;-75
2022/11/18 13:25:52;;;;;;;0.80;0.50;;;8.90;99.90;;;;;;5009719;28;20408;-76
2022/11/18 13:28:43;;;;;;;0.73;0.53;;;8.80;99.90;;;;;;5008198;28;20420;-76
2022/11/18 13:31:26;;;;;;;1.67;1.57;;;8.90;99.90;;;;;;5008002;28;20181;-74
2022/11/18 13:33:52;;;;;;;0.80;0.70;;;8.90;99.90;;;;;;5009439;28;20437;-75